createdAt,value
2019-03-31T00:00:01.104Z,20
2019-03-31T00:01:07.829Z,19
2019-03-31T00:02:01.096Z,17
2019-03-31T00:03:01.102Z,16
2019-03-31T00:04:01.094Z,14
2019-03-31T00:06:01.122Z,13
2019-03-31T00:07:01.131Z,15
2019-03-31T00:08:01.097Z,16
2019-03-31T00:09:01.097Z,18
2019-03-31T00:10:01.096Z,17
2019-03-31T00:11:01.096Z,18
2019-03-31T00:12:02.172Z,19
2019-03-31T00:13:01.095Z,20
2019-03-31T00:14:01.095Z,19
2019-03-31T00:15:01.096Z,21
2019-03-31T00:17:01.098Z,19
2019-03-31T00:18:01.123Z,17
2019-03-31T00:19:01.096Z,18
2019-03-31T00:20:01.101Z,15
2019-03-31T00:21:01.097Z,14
2019-03-31T00:22:01.096Z,16
2019-03-31T00:24:01.134Z,20
2019-03-31T00:25:01.098Z,21
2019-03-31T00:27:01.101Z,19
2019-03-31T00:28:01.131Z,20
2019-03-31T00:29:01.099Z,17
2019-03-31T00:30:01.098Z,16
2019-03-31T00:31:01.101Z,18
2019-03-31T00:33:01.082Z,17
2019-03-31T00:34:01.084Z,19
2019-03-31T00:36:01.080Z,21
2019-03-31T00:37:01.099Z,20
2019-03-31T00:40:01.085Z,19
2019-03-31T00:41:01.084Z,17
2019-03-31T00:42:01.086Z,16
2019-03-31T00:43:01.089Z,17
2019-03-31T00:44:01.110Z,16
2019-03-31T00:45:01.084Z,15
2019-03-31T00:48:01.119Z,16
2019-03-31T00:51:01.088Z,18
2019-03-31T00:52:01.084Z,16
2019-03-31T00:54:01.085Z,17
2019-03-31T00:55:01.086Z,18
2019-03-31T00:56:01.086Z,16
2019-03-31T00:57:01.093Z,17
2019-03-31T00:58:01.094Z,16
2019-03-31T00:59:01.112Z,15
2019-03-31T01:00:01.100Z,14
2019-03-31T01:01:01.086Z,15
2019-03-31T01:02:01.087Z,17
2019-03-31T01:03:01.086Z,18
2019-03-31T01:04:01.112Z,17
2019-03-31T01:05:01.090Z,16
2019-03-31T01:06:01.087Z,15
2019-03-31T01:07:01.091Z,16
2019-03-31T01:08:01.089Z,17
2019-03-31T01:09:01.120Z,19
2019-03-31T01:10:01.092Z,20
2019-03-31T01:11:01.258Z,22
2019-03-31T01:12:01.093Z,20
2019-03-31T01:13:01.091Z,19
2019-03-31T01:14:01.133Z,18
2019-03-31T01:15:01.093Z,18
2019-03-31T01:16:01.091Z,16
2019-03-31T01:17:01.095Z,17
2019-03-31T01:18:01.095Z,15
2019-03-31T01:20:01.118Z,16
2019-03-31T01:22:01.100Z,17
2019-03-31T01:23:01.096Z,16
2019-03-31T01:24:01.095Z,15
2019-03-31T01:25:01.120Z,14
2019-03-31T01:26:01.098Z,13
2019-03-31T01:27:01.100Z,11
2019-03-31T01:30:01.180Z,12
2019-03-31T01:35:01.130Z,13
2019-03-31T01:37:01.108Z,14
2019-03-31T01:39:01.085Z,15
2019-03-31T01:40:01.081Z,18
2019-03-31T01:41:01.086Z,17
2019-03-31T01:42:01.085Z,18
2019-03-31T01:45:01.086Z,17
2019-03-31T01:47:01.085Z,16
2019-03-31T01:48:01.085Z,18
2019-03-31T01:49:01.103Z,17
2019-03-31T01:51:01.086Z,16
2019-03-31T01:53:01.090Z,15
2019-03-31T01:54:01.117Z,16
2019-03-31T01:59:01.113Z,17
2019-03-31T02:00:01.089Z,14
2019-03-31T02:02:04.252Z,13
2019-03-31T02:03:01.088Z,15
2019-03-31T02:04:01.116Z,13
2019-03-31T02:05:01.091Z,16
2019-03-31T02:06:01.087Z,17
2019-03-31T02:09:01.117Z,16
2019-03-31T02:10:01.089Z,15
2019-03-31T02:12:01.091Z,16
2019-03-31T02:13:01.946Z,15
2019-03-31T02:15:01.095Z,15
2019-03-31T02:17:01.091Z,13
2019-03-31T02:20:01.091Z,15
2019-03-31T02:23:01.095Z,17
2019-03-31T02:24:01.093Z,19
2019-03-31T02:27:01.095Z,20
2019-03-31T02:28:01.094Z,19
2019-03-31T02:29:01.096Z,17
2019-03-31T02:30:01.097Z,16
2019-03-31T02:31:01.101Z,17
2019-03-31T02:32:01.106Z,15
2019-03-31T02:34:03.188Z,16
2019-03-31T02:36:01.100Z,15
2019-03-31T02:37:01.101Z,14
2019-03-31T02:38:01.105Z,15
2019-03-31T02:39:01.099Z,16
2019-03-31T02:42:01.100Z,18
2019-03-31T02:45:01.101Z,16
2019-03-31T02:50:01.115Z,19
2019-03-31T02:52:01.095Z,18
2019-03-31T02:53:01.087Z,17
2019-03-31T02:54:01.088Z,18
2019-03-31T02:55:01.092Z,16
2019-03-31T02:57:01.092Z,17
2019-03-31T02:58:01.090Z,18
2019-03-31T02:59:01.089Z,19
2019-03-31T03:00:01.091Z,18
2019-03-31T03:02:01.055Z,20
2019-03-31T03:03:01.209Z,19
2019-03-31T03:04:01.183Z,18
2019-03-31T03:06:01.130Z,19
2019-03-31T03:07:01.090Z,16
2019-03-31T03:08:01.089Z,17
2019-03-31T03:10:01.093Z,19
2019-03-31T03:11:01.115Z,20
2019-03-31T03:14:01.105Z,19
2019-03-31T03:15:01.093Z,17
2019-03-31T03:16:01.114Z,15
2019-03-31T03:17:01.091Z,13
2019-03-31T03:19:01.267Z,14
2019-03-31T03:20:01.119Z,16
2019-03-31T03:22:01.122Z,18
2019-03-31T03:23:01.094Z,19
2019-03-31T03:24:01.094Z,17
2019-03-31T03:27:01.125Z,16
2019-03-31T03:30:01.099Z,15
2019-03-31T03:31:01.244Z,16
2019-03-31T03:32:01.127Z,18
2019-03-31T03:33:14.269Z,17
2019-03-31T03:34:01.098Z,18
2019-03-31T03:35:01.380Z,17
2019-03-31T03:38:01.123Z,18
2019-03-31T03:39:01.100Z,17
2019-03-31T03:40:01.095Z,18
2019-03-31T03:41:01.098Z,17
2019-03-31T03:42:01.103Z,16
2019-03-31T03:43:01.100Z,17
2019-03-31T03:45:01.097Z,17
2019-03-31T03:46:01.168Z,18
2019-03-31T03:49:01.135Z,17
2019-03-31T03:50:01.105Z,15
2019-03-31T03:51:01.110Z,13
2019-03-31T03:53:01.098Z,14
2019-03-31T03:54:01.096Z,15
2019-03-31T03:55:01.107Z,17
2019-03-31T03:56:01.096Z,19
2019-03-31T03:57:01.099Z,18
2019-03-31T03:59:01.098Z,17
2019-03-31T04:00:01.114Z,16
2019-03-31T04:02:01.082Z,17
2019-03-31T04:03:01.084Z,19
2019-03-31T04:04:01.213Z,18
2019-03-31T04:05:01.118Z,19
2019-03-31T04:06:01.088Z,21
2019-03-31T04:07:01.081Z,18
2019-03-31T04:08:01.087Z,17
2019-03-31T04:09:01.083Z,15
2019-03-31T04:10:01.082Z,14
2019-03-31T04:11:01.084Z,13
2019-03-31T04:12:01.163Z,15
2019-03-31T04:13:01.083Z,14
2019-03-31T04:14:01.084Z,18
2019-03-31T04:15:01.087Z,17
2019-03-31T04:17:01.088Z,16
2019-03-31T04:18:01.081Z,18
2019-03-31T04:19:01.085Z,16
2019-03-31T04:20:01.127Z,18
2019-03-31T04:21:01.087Z,17
2019-03-31T04:22:01.086Z,16
2019-03-31T04:23:01.084Z,15
2019-03-31T04:25:01.092Z,14
2019-03-31T04:26:01.083Z,15
2019-03-31T04:27:02.947Z,16
2019-03-31T04:28:01.085Z,15
2019-03-31T04:29:01.082Z,14
2019-03-31T04:30:01.090Z,13
2019-03-31T04:31:01.086Z,14
2019-03-31T04:32:01.082Z,12
2019-03-31T04:33:01.083Z,14
2019-03-31T04:34:01.089Z,15
2019-03-31T04:35:01.090Z,16
2019-03-31T04:36:01.088Z,15
2019-03-31T04:37:01.087Z,17
2019-03-31T04:40:01.084Z,16
2019-03-31T04:41:01.084Z,17
2019-03-31T04:42:01.084Z,15
2019-03-31T04:43:01.082Z,14
2019-03-31T04:45:01.084Z,16
2019-03-31T04:46:01.084Z,17
2019-03-31T04:48:01.121Z,18
2019-03-31T04:49:01.092Z,17
2019-03-31T04:50:01.086Z,16
2019-03-31T04:51:01.086Z,17
2019-03-31T04:53:01.086Z,18
2019-03-31T04:54:01.054Z,17
2019-03-31T04:55:01.104Z,16
2019-03-31T04:56:01.087Z,15
2019-03-31T04:58:01.094Z,14
2019-03-31T04:59:01.090Z,16
2019-03-31T05:00:01.103Z,16
2019-03-31T05:02:01.091Z,17
2019-03-31T05:03:01.089Z,19
2019-03-31T05:04:04.797Z,17
2019-03-31T05:05:01.097Z,18
2019-03-31T05:06:01.095Z,20
2019-03-31T05:07:01.094Z,19
2019-03-31T05:09:01.092Z,20
2019-03-31T05:10:01.092Z,18
2019-03-31T05:11:01.096Z,16
2019-03-31T05:12:01.098Z,17
2019-03-31T05:13:01.092Z,16
2019-03-31T05:14:01.099Z,17
2019-03-31T05:15:01.091Z,18
2019-03-31T05:17:01.091Z,17
2019-03-31T05:18:01.091Z,18
2019-03-31T05:19:01.093Z,16
2019-03-31T05:23:01.091Z,17
2019-03-31T05:24:01.093Z,18
2019-03-31T05:26:01.093Z,20
2019-03-31T05:27:01.100Z,18
2019-03-31T05:28:01.114Z,16
2019-03-31T05:30:01.131Z,17
2019-03-31T05:32:01.094Z,18
2019-03-31T05:33:01.093Z,20
2019-03-31T05:34:01.099Z,18
2019-03-31T05:35:01.125Z,17
2019-03-31T05:37:01.098Z,18
2019-03-31T05:38:01.152Z,17
2019-03-31T05:39:01.094Z,18
2019-03-31T05:40:01.130Z,17
2019-03-31T05:41:01.093Z,18
2019-03-31T05:45:01.093Z,19
2019-03-31T05:49:01.126Z,18
2019-03-31T05:51:01.094Z,17
2019-03-31T05:52:01.094Z,15
2019-03-31T05:53:01.093Z,16
2019-03-31T05:59:01.077Z,15
2019-03-31T06:00:01.080Z,14
2019-03-31T06:01:01.409Z,15
2019-03-31T06:03:01.081Z,17
2019-03-31T06:05:01.085Z,18
2019-03-31T06:09:01.084Z,19
2019-03-31T06:10:01.082Z,20
2019-03-31T06:11:01.080Z,18
2019-03-31T06:12:01.080Z,19
2019-03-31T06:14:01.081Z,20
2019-03-31T06:15:01.085Z,19
2019-03-31T06:17:01.082Z,18
2019-03-31T06:19:01.081Z,14
2019-03-31T06:20:01.088Z,12
2019-03-31T06:24:01.083Z,14
2019-03-31T06:25:01.083Z,16
2019-03-31T06:26:01.080Z,17
2019-03-31T06:28:01.080Z,16
2019-03-31T06:30:01.084Z,16
2019-03-31T06:33:01.084Z,17
2019-03-31T06:36:01.084Z,16
2019-03-31T06:38:01.084Z,17
2019-03-31T06:39:01.083Z,16
2019-03-31T06:40:01.086Z,15
2019-03-31T06:41:01.086Z,17
2019-03-31T06:42:01.088Z,16
2019-03-31T06:43:01.084Z,17
2019-03-31T06:44:01.085Z,19
2019-03-31T06:45:01.089Z,19
2019-03-31T06:46:01.086Z,17
2019-03-31T06:47:01.084Z,18
2019-03-31T06:49:01.087Z,17
2019-03-31T06:50:01.089Z,16
2019-03-31T06:53:01.087Z,15
2019-03-31T06:54:01.088Z,17
2019-03-31T06:55:01.088Z,18
2019-03-31T06:56:01.089Z,19
2019-03-31T06:57:01.091Z,20
2019-03-31T07:00:01.105Z,18
2019-03-31T07:02:02.975Z,17
2019-03-31T07:04:01.091Z,15
2019-03-31T07:08:01.090Z,16
2019-03-31T07:10:01.099Z,17
2019-03-31T07:12:01.092Z,20
2019-03-31T07:13:01.094Z,19
2019-03-31T07:15:01.094Z,18
2019-03-31T07:16:01.095Z,17
2019-03-31T07:17:01.152Z,14
2019-03-31T07:19:01.100Z,16
2019-03-31T07:20:01.095Z,20
2019-03-31T07:24:01.096Z,18
2019-03-31T07:25:01.246Z,15
2019-03-31T07:26:01.128Z,14
2019-03-31T07:27:01.096Z,15
2019-03-31T07:30:01.102Z,17
2019-03-31T07:32:01.132Z,16
2019-03-31T07:33:01.116Z,18
2019-03-31T07:35:01.100Z,17
2019-03-31T07:36:01.098Z,19
2019-03-31T07:38:01.122Z,17
2019-03-31T07:40:01.373Z,16
2019-03-31T07:41:11.905Z,14
2019-03-31T07:43:01.138Z,15
2019-03-31T07:44:01.099Z,17
2019-03-31T07:45:01.100Z,17
2019-03-31T07:46:01.099Z,18
2019-03-31T07:47:01.100Z,17
2019-03-31T07:50:01.084Z,15
2019-03-31T07:52:01.086Z,16
2019-03-31T07:53:06.094Z,17
2019-03-31T07:54:01.128Z,16
2019-03-31T07:55:01.086Z,17
2019-03-31T08:00:01.095Z,16
2019-03-31T08:03:01.089Z,17
2019-03-31T08:04:01.087Z,18
2019-03-31T08:06:01.087Z,20
2019-03-31T08:07:01.087Z,21
2019-03-31T08:09:01.092Z,20
2019-03-31T08:12:01.087Z,18
2019-03-31T08:15:01.093Z,18
2019-03-31T08:16:01.089Z,17
2019-03-31T08:17:01.091Z,16
2019-03-31T08:18:01.092Z,15
2019-03-31T08:20:01.091Z,13
2019-03-31T08:21:01.091Z,12
2019-03-31T08:22:01.092Z,13
2019-03-31T08:23:01.091Z,12
2019-03-31T08:25:01.092Z,13
2019-03-31T08:29:01.097Z,14
2019-03-31T08:30:01.465Z,14
2019-03-31T08:31:01.096Z,16
2019-03-31T08:32:01.096Z,17
2019-03-31T08:35:01.095Z,19
2019-03-31T08:37:01.096Z,20
2019-03-31T08:38:01.095Z,22
2019-03-31T08:40:01.095Z,20
2019-03-31T08:41:01.098Z,17
2019-03-31T08:42:01.104Z,15
2019-03-31T08:43:01.096Z,14
2019-03-31T08:45:01.098Z,15
2019-03-31T08:46:01.096Z,17
2019-03-31T08:48:01.098Z,16
2019-03-31T08:49:01.098Z,17
2019-03-31T08:51:01.127Z,16
2019-03-31T08:53:01.082Z,17
2019-03-31T08:54:01.083Z,18
2019-03-31T08:56:01.109Z,17
2019-03-31T08:57:01.083Z,18
2019-03-31T08:58:01.088Z,19
2019-03-31T08:59:01.084Z,18
2019-03-31T09:00:01.148Z,18
2019-03-31T09:01:01.108Z,19
2019-03-31T09:02:03.235Z,20
2019-03-31T09:04:01.083Z,18
2019-03-31T09:05:01.094Z,17
2019-03-31T09:06:02.502Z,16
2019-03-31T09:07:01.148Z,13
2019-03-31T09:08:01.087Z,11
2019-03-31T09:09:01.084Z,13
2019-03-31T09:11:01.116Z,12
2019-03-31T09:12:01.088Z,14
2019-03-31T09:13:01.091Z,16
2019-03-31T09:15:01.090Z,18
2019-03-31T09:18:01.086Z,17
2019-03-31T09:19:01.085Z,18
2019-03-31T09:20:01.089Z,16
2019-03-31T09:21:01.087Z,15
2019-03-31T09:22:01.120Z,14
2019-03-31T09:24:01.087Z,16
2019-03-31T09:25:01.094Z,17
2019-03-31T09:26:01.094Z,18
2019-03-31T09:27:01.088Z,20
2019-03-31T09:28:01.112Z,19
2019-03-31T09:29:01.090Z,15
2019-03-31T09:30:01.177Z,15
2019-03-31T09:31:01.089Z,17
2019-03-31T09:32:01.105Z,16
2019-03-31T09:34:01.118Z,17
2019-03-31T09:35:01.097Z,18
2019-03-31T09:36:15.011Z,16
2019-03-31T09:42:01.095Z,15
2019-03-31T09:43:01.136Z,17
2019-03-31T09:44:01.092Z,20
2019-03-31T09:45:01.093Z,18
2019-03-31T09:46:01.092Z,17
2019-03-31T09:47:01.092Z,18
2019-03-31T09:48:01.124Z,16
2019-03-31T09:49:01.093Z,15
2019-03-31T09:50:01.094Z,14
2019-03-31T09:51:01.094Z,13
2019-03-31T09:55:01.123Z,14
2019-03-31T09:56:01.094Z,15
2019-03-31T10:00:01.095Z,16
2019-03-31T10:01:01.094Z,15
2019-03-31T10:03:01.331Z,16
2019-03-31T10:04:01.095Z,17
2019-03-31T10:05:01.095Z,15
2019-03-31T10:07:01.098Z,14
2019-03-31T10:09:01.121Z,12
2019-03-31T10:10:01.100Z,14
2019-03-31T10:12:01.122Z,15
2019-03-31T10:13:01.096Z,16
2019-03-31T10:15:01.106Z,15
2019-03-31T10:16:01.123Z,16
2019-03-31T10:17:01.105Z,17
2019-03-31T10:18:01.099Z,18
2019-03-31T10:19:01.097Z,20
2019-03-31T10:20:01.096Z,19
2019-03-31T10:21:01.722Z,20
2019-03-31T10:22:01.099Z,18
2019-03-31T10:23:01.105Z,17
2019-03-31T10:24:01.096Z,16
2019-03-31T10:25:01.097Z,17
2019-03-31T10:28:01.096Z,16
2019-03-31T10:29:01.097Z,17
2019-03-31T10:30:01.102Z,16
2019-03-31T10:31:01.123Z,15
2019-03-31T10:37:01.110Z,16
2019-03-31T10:38:01.082Z,17
2019-03-31T10:39:01.083Z,19
2019-03-31T10:41:01.084Z,20
2019-03-31T10:42:01.108Z,19
2019-03-31T10:43:01.091Z,20
2019-03-31T10:44:01.088Z,18
2019-03-31T10:45:01.098Z,18
2019-03-31T10:46:02.074Z,17
2019-03-31T10:48:01.086Z,16
2019-03-31T10:49:01.086Z,17
2019-03-31T10:50:01.094Z,18
2019-03-31T10:52:01.110Z,17
2019-03-31T10:55:01.089Z,18
2019-03-31T10:56:01.086Z,17
2019-03-31T10:57:01.118Z,18
2019-03-31T10:58:01.086Z,19
2019-03-31T10:59:01.090Z,17
2019-03-31T11:00:01.088Z,16
2019-03-31T11:01:01.086Z,15
2019-03-31T11:04:01.114Z,17
2019-03-31T11:07:03.446Z,15
2019-03-31T11:08:01.172Z,16
2019-03-31T11:09:01.088Z,15
2019-03-31T11:12:01.086Z,16
2019-03-31T11:15:01.086Z,17
2019-03-31T11:16:01.087Z,18
2019-03-31T11:17:01.093Z,19
2019-03-31T11:19:01.118Z,18
2019-03-31T11:20:01.435Z,19
2019-03-31T11:21:01.088Z,17
2019-03-31T11:22:01.088Z,16
2019-03-31T11:23:01.086Z,17
2019-03-31T11:24:01.087Z,19
2019-03-31T11:25:01.086Z,18
2019-03-31T11:26:01.088Z,17
2019-03-31T11:28:01.088Z,16
2019-03-31T11:29:01.090Z,15
2019-03-31T11:30:01.091Z,15
2019-03-31T11:31:01.090Z,18
2019-03-31T11:32:01.090Z,16
2019-03-31T11:33:01.093Z,15
2019-03-31T11:34:01.089Z,17
2019-03-31T11:35:01.089Z,19
2019-03-31T11:36:01.088Z,20
2019-03-31T11:37:12.765Z,21
2019-03-31T11:38:01.088Z,20
2019-03-31T11:39:01.095Z,19
2019-03-31T11:40:01.410Z,17
2019-03-31T11:41:01.092Z,13
2019-03-31T11:42:01.114Z,14
2019-03-31T11:43:01.089Z,15
2019-03-31T11:45:01.093Z,17
2019-03-31T11:47:01.114Z,16
2019-03-31T11:52:01.115Z,17
2019-03-31T11:56:01.118Z,16
2019-03-31T11:58:01.099Z,17
2019-03-31T11:59:01.094Z,16
2019-03-31T12:00:01.094Z,16
2019-03-31T12:01:01.121Z,17
2019-03-31T12:02:01.092Z,14
2019-03-31T12:03:01.091Z,15
2019-03-31T12:04:01.760Z,13
2019-03-31T12:05:01.092Z,14
2019-03-31T12:07:01.119Z,17
2019-03-31T12:08:01.093Z,16
2019-03-31T12:09:01.094Z,17
2019-03-31T12:10:01.094Z,18
2019-03-31T12:11:01.121Z,16
2019-03-31T12:12:01.094Z,15
2019-03-31T12:14:01.096Z,16
2019-03-31T12:15:01.473Z,14
2019-03-31T12:16:01.167Z,15
2019-03-31T12:17:01.095Z,16
2019-03-31T12:18:01.095Z,17
2019-03-31T12:19:01.095Z,16
2019-03-31T12:20:01.096Z,19
2019-03-31T12:21:01.126Z,21
2019-03-31T12:23:01.098Z,20
2019-03-31T12:24:01.096Z,19
2019-03-31T12:25:01.100Z,18
2019-03-31T12:26:01.128Z,16
2019-03-31T12:28:01.148Z,17
2019-03-31T12:30:01.101Z,15
2019-03-31T12:32:01.126Z,12
2019-03-31T12:34:01.082Z,13
2019-03-31T12:35:01.097Z,12
2019-03-31T12:36:01.084Z,15
2019-03-31T12:37:01.110Z,17
2019-03-31T12:38:01.082Z,18
2019-03-31T12:40:01.085Z,21
2019-03-31T12:41:01.090Z,20
2019-03-31T12:42:01.118Z,19
2019-03-31T12:45:01.177Z,17
2019-03-31T12:46:01.085Z,16
2019-03-31T12:47:01.085Z,15
2019-03-31T12:49:01.110Z,17
2019-03-31T12:52:01.086Z,18
2019-03-31T12:55:01.090Z,16
2019-03-31T12:56:01.087Z,15
2019-03-31T12:57:01.097Z,14
2019-03-31T12:59:01.119Z,13
2019-03-31T13:00:01.090Z,15
2019-03-31T13:01:01.990Z,16
2019-03-31T13:02:01.560Z,18
2019-03-31T13:04:01.088Z,19
2019-03-31T13:05:01.089Z,18
2019-03-31T13:06:01.118Z,19
2019-03-31T13:09:01.091Z,20
2019-03-31T13:11:01.092Z,21
2019-03-31T13:12:01.114Z,20
2019-03-31T13:14:01.089Z,19
2019-03-31T13:15:01.096Z,17
2019-03-31T13:16:01.089Z,18
2019-03-31T13:18:01.092Z,19
2019-03-31T13:20:01.092Z,20
2019-03-31T13:22:01.116Z,19
2019-03-31T13:23:01.091Z,18
2019-03-31T13:25:02.442Z,16
2019-03-31T13:26:01.091Z,15
2019-03-31T13:27:01.117Z,14
2019-03-31T13:29:01.090Z,15
2019-03-31T13:30:01.976Z,15
2019-03-31T13:31:01.095Z,14
2019-03-31T13:32:01.116Z,15
2019-03-31T13:33:01.093Z,16
2019-03-31T13:34:01.092Z,15
2019-03-31T13:36:01.095Z,16
2019-03-31T13:40:01.094Z,17
2019-03-31T13:41:01.095Z,16
2019-03-31T13:42:01.118Z,19
2019-03-31T13:44:01.095Z,18
2019-03-31T13:45:01.108Z,18
2019-03-31T13:47:01.121Z,17
2019-03-31T13:48:01.113Z,18
2019-03-31T13:50:01.094Z,20
2019-03-31T13:51:01.095Z,19
2019-03-31T13:53:01.136Z,16
2019-03-31T13:55:01.095Z,13
2019-03-31T13:56:01.097Z,14
2019-03-31T13:59:01.098Z,15
2019-03-31T14:00:01.119Z,15
2019-03-31T14:01:02.097Z,16
2019-03-31T14:02:01.129Z,17
2019-03-31T14:03:01.098Z,20
2019-03-31T14:04:03.407Z,19
2019-03-31T14:06:01.120Z,18
2019-03-31T14:07:04.276Z,17
2019-03-31T14:08:01.100Z,15
2019-03-31T14:09:01.097Z,14
2019-03-31T14:10:01.105Z,15
2019-03-31T14:12:01.127Z,16
2019-03-31T14:13:01.098Z,15
2019-03-31T14:14:01.098Z,17
2019-03-31T14:15:01.098Z,18
2019-03-31T14:16:01.186Z,17
2019-03-31T14:17:01.132Z,15
2019-03-31T14:18:01.105Z,16
2019-03-31T14:19:01.105Z,15
2019-03-31T14:20:01.099Z,16
2019-03-31T14:22:01.084Z,17
2019-03-31T14:24:02.109Z,18
2019-03-31T14:27:01.093Z,17
2019-03-31T14:28:01.086Z,18
2019-03-31T14:29:02.090Z,19
2019-03-31T14:30:01.085Z,21
2019-03-31T14:31:01.085Z,20
2019-03-31T14:32:01.087Z,19
2019-03-31T14:33:01.085Z,18
2019-03-31T14:34:01.091Z,19
2019-03-31T14:35:01.089Z,17
2019-03-31T14:36:01.086Z,18
2019-03-31T14:37:01.092Z,20
2019-03-31T14:38:01.106Z,18
2019-03-31T14:39:01.090Z,17
2019-03-31T14:40:01.087Z,16
2019-03-31T14:42:01.096Z,15
2019-03-31T14:43:01.090Z,17
2019-03-31T14:44:01.093Z,16
2019-03-31T14:45:01.100Z,16
2019-03-31T14:47:01.092Z,17
2019-03-31T14:48:01.098Z,16
2019-03-31T14:52:01.580Z,15
2019-03-31T14:54:01.092Z,16
2019-03-31T14:57:01.095Z,18
2019-03-31T14:58:01.129Z,19
2019-03-31T14:59:01.098Z,21
2019-03-31T15:00:13.786Z,23
2019-03-31T15:02:01.096Z,21
2019-03-31T15:03:01.123Z,22
2019-03-31T15:04:01.134Z,21
2019-03-31T15:05:01.096Z,20
2019-03-31T15:06:01.097Z,19
2019-03-31T15:08:01.096Z,17
2019-03-31T15:09:01.132Z,16
2019-03-31T15:10:01.979Z,19
2019-03-31T15:11:01.098Z,18
2019-03-31T15:12:01.100Z,19
2019-03-31T15:13:01.098Z,18
2019-03-31T15:14:01.131Z,17
2019-03-31T15:15:01.109Z,13
2019-03-31T15:16:01.104Z,14
2019-03-31T15:18:01.087Z,16
2019-03-31T15:20:01.082Z,20
2019-03-31T15:22:01.082Z,21
2019-03-31T15:23:01.084Z,18
2019-03-31T15:24:01.082Z,19
2019-03-31T15:25:01.083Z,18
2019-03-31T15:26:01.084Z,19
2019-03-31T15:28:01.084Z,20
2019-03-31T15:29:01.086Z,18
2019-03-31T15:30:01.084Z,17
2019-03-31T15:31:01.109Z,16
2019-03-31T15:32:01.082Z,14
2019-03-31T15:33:01.086Z,15
2019-03-31T15:34:01.083Z,16
2019-03-31T15:37:01.109Z,17
2019-03-31T15:38:01.084Z,18
2019-03-31T15:39:08.464Z,16
2019-03-31T15:40:01.088Z,17
2019-03-31T15:41:01.084Z,18
2019-03-31T15:42:01.111Z,19
2019-03-31T15:43:01.084Z,18
2019-03-31T15:44:01.082Z,20
2019-03-31T15:45:01.084Z,18
2019-03-31T15:46:01.083Z,17
2019-03-31T15:49:01.087Z,18
2019-03-31T15:50:01.275Z,19
2019-03-31T15:51:01.090Z,20
2019-03-31T15:54:01.090Z,17
2019-03-31T15:55:01.085Z,18
2019-03-31T15:57:01.086Z,17
2019-03-31T15:58:01.159Z,16
2019-03-31T16:00:01.094Z,16
2019-03-31T16:01:01.091Z,15
2019-03-31T16:02:01.088Z,14
2019-03-31T16:03:01.119Z,16
2019-03-31T16:04:01.089Z,18
2019-03-31T16:06:01.089Z,19
2019-03-31T16:07:01.092Z,20
2019-03-31T16:08:06.113Z,19
2019-03-31T16:09:01.089Z,16
2019-03-31T16:11:04.497Z,14
2019-03-31T16:12:01.090Z,15
2019-03-31T16:13:01.090Z,14
2019-03-31T16:14:01.090Z,16
2019-03-31T16:15:01.098Z,17
2019-03-31T16:17:01.096Z,15
2019-03-31T16:20:01.092Z,14
2019-03-31T16:22:01.092Z,16
2019-03-31T16:24:01.124Z,17
2019-03-31T16:25:01.091Z,19
2019-03-31T16:28:01.096Z,20
2019-03-31T16:29:01.118Z,19
2019-03-31T16:30:01.177Z,17
2019-03-31T16:32:01.094Z,15
2019-03-31T16:38:01.164Z,14
2019-03-31T16:40:01.101Z,16
2019-03-31T16:42:01.081Z,18
2019-03-31T16:43:01.082Z,19
2019-03-31T16:45:01.088Z,20
2019-03-31T16:46:01.083Z,19
2019-03-31T16:47:01.097Z,18
2019-03-31T16:48:01.086Z,17
2019-03-31T16:49:01.103Z,18
2019-03-31T16:52:01.114Z,19
2019-03-31T16:53:01.091Z,18
2019-03-31T16:54:01.086Z,17
2019-03-31T16:56:01.085Z,16
2019-03-31T16:57:01.085Z,15
2019-03-31T16:58:01.828Z,19
2019-03-31T16:59:01.086Z,17
2019-03-31T17:00:01.100Z,17
2019-03-31T17:02:01.117Z,18
2019-03-31T17:03:01.089Z,16
2019-03-31T17:04:01.086Z,17
2019-03-31T17:05:01.086Z,18
2019-03-31T17:06:01.087Z,16
2019-03-31T17:07:01.118Z,15
2019-03-31T17:08:01.087Z,14
2019-03-31T17:09:01.119Z,16
2019-03-31T17:10:01.085Z,14
2019-03-31T17:11:01.086Z,16
2019-03-31T17:12:01.086Z,17
2019-03-31T17:13:01.090Z,16
2019-03-31T17:14:01.108Z,15
2019-03-31T17:15:01.090Z,16
2019-03-31T17:17:01.088Z,15
2019-03-31T17:22:01.090Z,14
2019-03-31T17:23:01.123Z,16
2019-03-31T17:25:01.113Z,17
2019-03-31T17:27:01.093Z,19
2019-03-31T17:28:01.117Z,17
2019-03-31T17:30:01.096Z,17
2019-03-31T17:31:01.098Z,16
2019-03-31T17:33:01.097Z,17
2019-03-31T17:34:01.091Z,18
2019-03-31T17:35:01.103Z,17
2019-03-31T17:36:01.097Z,18
2019-03-31T17:37:01.093Z,17
2019-03-31T17:39:01.092Z,15
2019-03-31T17:43:02.815Z,16
2019-03-31T17:45:01.108Z,16
2019-03-31T17:47:01.122Z,17
2019-03-31T17:48:01.092Z,15
2019-03-31T17:49:01.092Z,17
2019-03-31T17:50:01.097Z,16
2019-03-31T17:51:01.096Z,17
2019-03-31T17:52:01.465Z,15
2019-03-31T17:53:03.823Z,16
2019-03-31T17:54:01.095Z,17
2019-03-31T17:55:01.094Z,19
2019-03-31T17:56:01.094Z,20
2019-03-31T17:57:01.094Z,21
2019-03-31T17:59:01.094Z,19
2019-03-31T18:00:01.096Z,18
2019-03-31T18:02:01.094Z,16
2019-03-31T18:05:08.104Z,17
2019-03-31T18:08:01.096Z,16
2019-03-31T18:11:01.126Z,15
2019-03-31T18:12:01.065Z,16
2019-03-31T18:13:01.105Z,17
2019-03-31T18:14:01.096Z,18
2019-03-31T18:15:06.103Z,18
2019-03-31T18:17:01.099Z,17
2019-03-31T18:18:01.096Z,19
2019-03-31T18:19:01.100Z,18
2019-03-31T18:20:01.134Z,16
2019-03-31T18:22:15.444Z,17
2019-03-31T18:24:01.082Z,15
2019-03-31T18:25:01.080Z,17
2019-03-31T18:26:01.105Z,18
2019-03-31T18:27:01.083Z,16
2019-03-31T18:28:01.085Z,15
2019-03-31T18:29:01.081Z,17
2019-03-31T18:30:01.082Z,17
2019-03-31T18:31:01.108Z,16
2019-03-31T18:32:02.591Z,17
2019-03-31T18:33:01.084Z,18
2019-03-31T18:34:01.082Z,16
2019-03-31T18:35:01.083Z,15
2019-03-31T18:36:01.084Z,16
2019-03-31T18:37:01.143Z,14
2019-03-31T18:38:01.081Z,15
2019-03-31T18:39:01.080Z,16
2019-03-31T18:40:01.084Z,17
2019-03-31T18:42:01.115Z,19
2019-03-31T18:43:01.082Z,18
2019-03-31T18:44:01.082Z,16
2019-03-31T18:45:01.080Z,14
2019-03-31T18:47:01.084Z,12
2019-03-31T18:48:01.487Z,13
2019-03-31T18:49:01.050Z,15
2019-03-31T18:50:01.083Z,16
2019-03-31T18:52:01.082Z,17
2019-03-31T18:53:01.108Z,18
2019-03-31T18:55:01.080Z,19
2019-03-31T18:57:01.083Z,18
2019-03-31T18:58:01.103Z,17
2019-03-31T18:59:01.081Z,15
2019-03-31T19:00:01.092Z,14
2019-03-31T19:03:01.086Z,16
2019-03-31T19:04:01.084Z,19
2019-03-31T19:06:01.086Z,18
2019-03-31T19:07:01.085Z,19
2019-03-31T19:08:01.113Z,17
2019-03-31T19:09:01.085Z,15
2019-03-31T19:10:01.086Z,16
2019-03-31T19:11:01.084Z,17
2019-03-31T19:13:01.110Z,18
2019-03-31T19:14:01.112Z,17
2019-03-31T19:15:01.086Z,16
2019-03-31T19:17:01.085Z,15
2019-03-31T19:18:01.215Z,16
2019-03-31T19:19:01.113Z,17
2019-03-31T19:22:01.087Z,16
2019-03-31T19:23:01.086Z,15
2019-03-31T19:24:01.112Z,14
2019-03-31T19:26:01.087Z,15
2019-03-31T19:27:01.086Z,16
2019-03-31T19:28:01.087Z,18
2019-03-31T19:29:01.124Z,17
2019-03-31T19:30:01.093Z,17
2019-03-31T19:31:02.852Z,18
2019-03-31T19:32:01.087Z,19
2019-03-31T19:34:01.124Z,20
2019-03-31T19:35:01.096Z,21
2019-03-31T19:36:01.086Z,19
2019-03-31T19:38:01.087Z,20
2019-03-31T19:40:02.116Z,19
2019-03-31T19:41:04.180Z,20
2019-03-31T19:43:01.091Z,17
2019-03-31T19:44:01.096Z,18
2019-03-31T19:45:06.091Z,17
2019-03-31T19:46:01.089Z,16
2019-03-31T19:47:01.090Z,15
2019-03-31T19:48:01.088Z,16
2019-03-31T19:50:01.116Z,19
2019-03-31T19:51:01.090Z,18
2019-03-31T19:52:01.090Z,19
2019-03-31T19:53:01.097Z,18
2019-03-31T19:54:01.093Z,17
2019-03-31T19:55:01.116Z,16
2019-03-31T19:58:01.092Z,18
2019-03-31T19:59:01.089Z,17
2019-03-31T20:00:06.104Z,18
2019-03-31T20:02:01.089Z,16
2019-03-31T20:03:01.090Z,14
2019-03-31T20:04:01.088Z,15
2019-03-31T20:05:01.126Z,14
2019-03-31T20:07:01.090Z,15
2019-03-31T20:08:02.140Z,16
2019-03-31T20:10:01.126Z,17
2019-03-31T20:12:01.095Z,19
2019-03-31T20:15:01.121Z,18
2019-03-31T20:16:02.709Z,19
2019-03-31T20:17:01.092Z,18
2019-03-31T20:18:01.091Z,17
2019-03-31T20:19:01.094Z,18
2019-03-31T20:20:01.103Z,17
2019-03-31T20:22:01.117Z,16
2019-03-31T20:24:01.094Z,15
2019-03-31T20:27:01.120Z,14
2019-03-31T20:28:01.097Z,15
2019-03-31T20:29:01.102Z,16